Terminal Aerodrome Forecast
Issued by NWS

Home | Current Version | Previous Version | Graphics & Text | Print | Product List | Glossary On
Versions: 1 2 3 4 5 6 7 8 9 10 11 12 13 14 15 16 17 18 19 20 21 22
000
FTUS43 KABR 251729
TAFMBG
TAF
KMBG 251729Z 2518/2618 01014KT P6SM OVC011
     FM252100 01018G25KT P6SM OVC020
     FM260700 36014G21KT P6SM OVC015
     FM261300 35015G23KT P6SM BKN020
     FM261700 35015G23KT P6SM BKN045=

USA.gov is the U.S. government's official web portal to all federal, state and local government web resources and services.